Time;durP1;ratioP1;P1;durP2;ratioP2;P2;SDS_P1;SDS_P2;PMS_P1;PMS_P2;Temp;Humidity;BMP_temperature;BMP_pressure;BME280_temperature;BME280_humidity;BME280_pressure;Samples;Min_cycle;Max_cycle;Signal;HPM_P1;HPM_P2
2022/10/12 00:02:24;;;;;;;4.83;2.03;;;13.40;99.90;;;;;;5072898;28;20456;-81
2022/10/12 00:04:51;;;;;;;7.10;1.70;;;13.40;99.90;;;;;;5072442;28;20496;-80
2022/10/12 00:07:17;;;;;;;4.17;1.60;;;13.40;99.90;;;;;;5072933;28;20464;-81
2022/10/12 00:09:44;;;;;;;4.50;2.00;;;13.40;99.90;;;;;;5072797;28;20468;-81
2022/10/12 00:12:12;;;;;;;4.33;2.10;;;13.30;99.90;;;;;;5072568;28;20453;-81
2022/10/12 00:14:39;;;;;;;2.80;1.93;;;13.30;99.90;;;;;;5072762;28;20469;-81
2022/10/12 00:17:06;;;;;;;4.47;1.70;;;13.20;99.90;;;;;;5072780;28;20449;-81
2022/10/12 00:19:33;;;;;;;3.63;2.40;;;13.30;99.90;;;;;;5072473;28;20822;-81
2022/10/12 00:21:59;;;;;;;3.10;2.70;;;13.30;99.90;;;;;;5072757;28;20457;-81
2022/10/12 00:24:26;;;;;;;4.33;2.03;;;13.30;99.90;;;;;;5072318;28;20482;-81
2022/10/12 00:26:53;;;;;;;2.10;1.30;;;13.20;99.90;;;;;;5072399;28;20453;-81
2022/10/12 00:29:21;;;;;;;2.60;1.90;;;13.20;99.90;;;;;;5072699;28;20453;-81
2022/10/12 00:31:48;;;;;;;7.80;2.53;;;13.10;99.90;;;;;;5072291;28;21016;-81
2022/10/12 00:34:15;;;;;;;8.50;3.77;;;13.10;99.90;;;;;;5072266;28;20999;-81
2022/10/12 00:36:42;;;;;;;5.60;2.33;;;13.10;99.90;;;;;;5073888;28;20460;-81
2022/10/12 00:39:10;;;;;;;5.70;2.77;;;13.10;99.90;;;;;;5075839;28;20968;-81
2022/10/12 00:41:39;;;;;;;8.57;3.00;;;13.10;99.90;;;;;;5076102;28;20445;-81
2022/10/12 00:44:35;;;;;;;10.17;2.27;;;13.10;99.90;;;;;;5075980;28;20473;-81
2022/10/12 00:47:05;;;;;;;7.40;3.27;;;13.10;99.90;;;;;;5076043;28;20430;-81
2022/10/12 00:49:32;;;;;;;3.90;1.90;;;13.10;99.90;;;;;;5075976;28;20445;-81
2022/10/12 00:52:02;;;;;;;4.93;2.27;;;13.00;99.90;;;;;;5075550;28;20490;-81
2022/10/12 00:54:33;;;;;;;2.97;2.20;;;13.00;99.90;;;;;;5075524;28;21007;-81
2022/10/12 00:57:02;;;;;;;6.53;3.10;;;13.00;99.90;;;;;;5076449;28;20441;-81
2022/10/12 00:59:33;;;;;;;2.20;1.30;;;13.00;99.90;;;;;;5075838;28;20441;-81
2022/10/12 01:02:02;;;;;;;5.43;2.30;;;13.00;99.90;;;;;;5075809;28;20429;-81
2022/10/12 01:04:31;;;;;;;2.23;1.37;;;13.00;99.90;;;;;;5075190;28;20481;-81
2022/10/12 01:06:58;;;;;;;5.60;2.50;;;13.00;99.90;;;;;;5075644;28;20452;-81
2022/10/12 01:09:27;;;;;;;3.53;2.20;;;13.00;99.90;;;;;;5075577;28;20445;-80
2022/10/12 01:11:54;;;;;;;3.30;2.13;;;12.90;99.90;;;;;;5075524;28;20893;-81
2022/10/12 01:14:20;;;;;;;2.50;1.40;;;12.90;99.90;;;;;;5075411;28;20473;-81
2022/10/12 01:16:55;;;;;;;2.70;1.93;;;12.90;99.90;;;;;;5075136;28;20957;-81
2022/10/12 01:20:03;;;;;;;2.73;1.50;;;12.90;99.90;;;;;;5075149;28;20433;-80
2022/10/12 01:22:34;;;;;;;3.40;1.60;;;12.80;99.90;;;;;;5013345;28;20450;-80
2022/10/12 01:25:09;;;;;;;2.97;1.60;;;12.90;99.90;;;;;;5062403;28;20473;-81
2022/10/12 01:27:42;;;;;;;4.83;1.53;;;12.90;99.90;;;;;;5075265;28;20438;-81
2022/10/12 01:30:22;;;;;;;6.33;2.03;;;12.90;99.90;;;;;;5075194;28;20477;-81
2022/10/12 01:33:16;;;;;;;5.33;2.47;;;12.80;99.90;;;;;;5075214;28;20429;-81
2022/10/12 01:35:51;;;;;;;2.30;1.57;;;12.80;99.90;;;;;;5075037;28;20469;-81
2022/10/12 01:38:31;;;;;;;4.10;1.40;;;12.80;99.90;;;;;;5074803;28;20936;-81
2022/10/12 01:41:06;;;;;;;4.17;2.00;;;12.80;99.90;;;;;;5075007;28;20442;-81
2022/10/12 01:43:34;;;;;;;5.53;2.40;;;12.70;99.90;;;;;;5074955;28;20429;-80
2022/10/12 01:46:46;;;;;;;2.27;1.93;;;12.70;99.90;;;;;;5074813;28;20457;-80
2022/10/12 01:49:17;;;;;;;1.53;1.13;;;12.70;99.90;;;;;;5074425;28;20473;-81
2022/10/12 01:51:58;;;;;;;4.10;2.07;;;12.80;99.90;;;;;;5074755;28;20830;-80
2022/10/12 01:54:34;;;;;;;8.03;2.60;;;12.80;99.90;;;;;;5074678;28;20469;-80
2022/10/12 01:57:06;;;;;;;3.93;1.90;;;12.80;99.90;;;;;;5074418;28;20428;-80
2022/10/12 01:59:47;;;;;;;5.37;2.70;;;12.80;99.90;;;;;;5074695;28;20434;-80
2022/10/12 02:02:24;;;;;;;7.53;2.50;;;12.80;99.90;;;;;;5074607;28;20433;-80
2022/10/12 02:04:56;;;;;;;6.00;2.83;;;12.90;99.90;;;;;;5074005;28;20489;-81
2022/10/12 02:07:30;;;;;;;5.70;2.80;;;12.90;99.90;;;;;;5074177;28;20905;-81
2022/10/12 02:09:59;;;;;;;2.53;2.07;;;12.90;99.90;;;;;;5074425;28;20523;-80
2022/10/12 02:12:30;;;;;;;4.30;2.20;;;12.90;99.90;;;;;;5074266;28;20489;-80
2022/10/12 02:15:00;;;;;;;4.73;2.17;;;12.90;99.90;;;;;;5074331;28;20484;-81
2022/10/12 02:17:30;;;;;;;9.60;2.77;;;12.90;99.90;;;;;;5074304;28;20440;-81
2022/10/12 02:19:58;;;;;;;11.00;3.37;;;13.00;99.90;;;;;;5074278;28;20452;-80
2022/10/12 02:22:32;;;;;;;5.40;4.07;;;13.00;99.90;;;;;;5073825;28;20445;-81
2022/10/12 02:25:01;;;;;;;5.57;2.20;;;13.00;99.90;;;;;;5074085;28;20475;-81
2022/10/12 02:27:29;;;;;;;4.60;2.10;;;13.00;99.90;;;;;;5074119;28;20441;-80
2022/10/12 02:29:56;;;;;;;6.50;2.50;;;13.00;99.90;;;;;;5074029;28;20449;-80
2022/10/12 02:32:35;;;;;;;5.53;2.60;;;13.00;99.90;;;;;;5073593;28;20482;-81
2022/10/12 02:35:07;;;;;;;6.20;2.60;;;13.00;99.90;;;;;;5073912;28;20465;-80
2022/10/12 02:37:38;;;;;;;3.63;2.23;;;13.00;99.90;;;;;;5073967;28;20438;-81
2022/10/12 02:40:12;;;;;;;6.97;2.37;;;12.90;99.90;;;;;;5073838;28;20437;-81
2022/10/12 02:42:45;;;;;;;4.03;2.23;;;12.90;99.90;;;;;;5073865;28;20433;-81
2022/10/12 02:45:14;;;;;;;4.50;2.70;;;12.90;99.90;;;;;;5073730;28;20469;-80
2022/10/12 02:47:43;;;;;;;4.13;1.83;;;12.90;99.90;;;;;;5073738;28;20445;-80
2022/10/12 02:50:11;;;;;;;5.77;2.43;;;13.00;99.90;;;;;;5073782;28;20433;-81
2022/10/12 02:52:38;;;;;;;5.27;2.67;;;13.00;99.90;;;;;;5073613;28;20486;-80
2022/10/12 02:55:06;;;;;;;6.20;2.80;;;13.00;99.90;;;;;;5073566;28;20472;-80
2022/10/12 02:57:32;;;;;;;4.10;2.40;;;13.00;99.90;;;;;;5073610;28;20458;-81
2022/10/12 02:59:59;;;;;;;3.67;2.37;;;13.00;99.90;;;;;;5072959;28;20448;-81
2022/10/12 03:02:26;;;;;;;6.73;2.93;;;13.00;99.90;;;;;;5073540;28;20444;-80
2022/10/12 03:04:54;;;;;;;3.07;2.83;;;12.90;99.90;;;;;;5073243;28;20485;-81
2022/10/12 03:07:21;;;;;;;8.80;2.67;;;12.90;99.90;;;;;;5073533;28;20456;-80
2022/10/12 03:09:47;;;;;;;2.43;1.87;;;12.90;99.90;;;;;;5073479;28;20449;-81
2022/10/12 03:12:14;;;;;;;6.50;3.27;;;12.90;99.90;;;;;;5073360;28;20477;-80
2022/10/12 03:14:41;;;;;;;7.83;2.80;;;12.90;99.90;;;;;;5073363;28;20477;-81
2022/10/12 03:17:08;;;;;;;7.47;2.90;;;12.90;99.90;;;;;;5073350;28;20446;-80
2022/10/12 03:19:37;;;;;;;7.67;3.37;;;12.90;99.90;;;;;;5073355;28;20457;-80
2022/10/12 03:22:05;;;;;;;7.07;2.60;;;12.90;99.90;;;;;;5073354;28;20454;-80
2022/10/12 03:24:32;;;;;;;4.90;3.13;;;12.90;99.90;;;;;;5073152;28;20469;-80
2022/10/12 03:26:58;;;;;;;6.57;2.60;;;12.90;99.90;;;;;;5073325;28;20445;-81
2022/10/12 03:29:25;;;;;;;9.63;3.33;;;12.90;99.90;;;;;;5073258;28;20460;-81
2022/10/12 03:31:52;;;;;;;9.40;3.10;;;12.90;99.90;;;;;;5073178;28;20487;-80
2022/10/12 03:34:19;;;;;;;9.43;3.17;;;12.90;99.90;;;;;;5073184;28;20477;-81
2022/10/12 03:36:45;;;;;;;6.43;2.60;;;12.90;99.90;;;;;;5073191;28;20449;-80
2022/10/12 03:39:14;;;;;;;4.43;2.40;;;12.90;99.90;;;;;;5073174;28;20456;-80
2022/10/12 03:41:40;;;;;;;6.30;2.13;;;12.90;99.90;;;;;;5073187;28;20805;-81
2022/10/12 03:44:07;;;;;;;10.97;2.67;;;12.90;99.90;;;;;;5073055;28;20627;-81
2022/10/12 03:46:34;;;;;;;4.40;2.10;;;12.90;99.90;;;;;;5073100;28;20449;-81
2022/10/12 03:49:01;;;;;;;3.57;1.50;;;12.90;99.90;;;;;;5073104;28;20453;-80
2022/10/12 03:51:27;;;;;;;8.37;3.70;;;12.90;99.90;;;;;;5072738;28;20976;-80
2022/10/12 03:53:54;;;;;;;9.77;3.03;;;12.80;99.90;;;;;;5072678;28;20454;-80
2022/10/12 03:56:22;;;;;;;11.70;3.43;;;12.70;99.90;;;;;;5072703;28;20940;-80
2022/10/12 03:58:49;;;;;;;9.93;3.40;;;12.70;99.90;;;;;;5073030;28;20533;-81
2022/10/12 04:01:16;;;;;;;8.77;2.70;;;12.70;99.90;;;;;;5072902;28;20445;-80
2022/10/12 04:03:42;;;;;;;3.80;2.80;;;12.70;99.90;;;;;;5073086;28;20584;-81
2022/10/12 04:06:09;;;;;;;8.93;2.63;;;12.70;99.90;;;;;;5072926;28;20449;-81
2022/10/12 04:08:36;;;;;;;6.13;3.10;;;12.70;99.90;;;;;;5072557;28;20953;-80
2022/10/12 04:11:03;;;;;;;7.93;3.40;;;12.70;99.90;;;;;;5074395;28;20944;-80
2022/10/12 04:13:31;;;;;;;9.63;2.87;;;12.70;99.90;;;;;;5076646;28;20447;-80
2022/10/12 04:16:02;;;;;;;6.67;3.37;;;12.70;99.90;;;;;;5076522;28;20470;-81
2022/10/12 04:18:29;;;;;;;7.97;4.10;;;12.70;99.90;;;;;;5076581;28;20433;-81
2022/10/12 04:20:55;;;;;;;8.03;3.10;;;12.70;99.90;;;;;;5077098;28;20446;-81
2022/10/12 04:23:22;;;;;;;8.67;4.10;;;12.70;99.90;;;;;;5076141;28;20894;-81
2022/10/12 04:25:49;;;;;;;4.23;1.87;;;12.70;99.90;;;;;;5076357;28;20481;-80
2022/10/12 04:28:16;;;;;;;7.83;2.60;;;12.60;99.90;;;;;;5076353;28;20449;-81
2022/10/12 04:30:45;;;;;;;8.87;2.80;;;12.70;99.90;;;;;;5076310;28;20449;-79
2022/10/12 04:33:12;;;;;;;6.27;2.87;;;12.60;99.90;;;;;;5076216;28;20481;-79
2022/10/12 04:35:38;;;;;;;2.20;2.00;;;12.60;99.90;;;;;;5075923;28;20453;-79
2022/10/12 04:38:06;;;;;;;7.87;2.17;;;12.70;99.90;;;;;;5076211;28;20449;-79
2022/10/12 04:40:33;;;;;;;7.93;3.23;;;12.70;99.90;;;;;;5076141;28;20441;-79
2022/10/12 04:42:59;;;;;;;5.67;2.37;;;12.70;99.90;;;;;;5076116;28;20449;-79
2022/10/12 04:45:26;;;;;;;7.67;3.70;;;12.60;99.90;;;;;;5075993;28;20469;-79
2022/10/12 04:47:54;;;;;;;5.13;2.50;;;12.60;99.90;;;;;;5076002;28;20449;-79
2022/10/12 04:50:22;;;;;;;5.30;1.77;;;12.60;99.90;;;;;;5075997;28;20453;-79
2022/10/12 04:52:49;;;;;;;5.23;3.20;;;12.60;99.90;;;;;;5075869;28;20477;-80
2022/10/12 04:55:15;;;;;;;10.07;2.50;;;12.70;99.90;;;;;;5075527;28;20482;-79
2022/10/12 04:57:42;;;;;;;4.63;2.63;;;12.70;99.90;;;;;;5075563;28;20457;-79
2022/10/12 05:00:10;;;;;;;4.23;2.63;;;12.70;99.90;;;;;;5075773;28;20537;-79
2022/10/12 05:02:37;;;;;;;3.97;1.80;;;12.70;99.90;;;;;;5075754;28;20529;-79
2022/10/12 05:05:06;;;;;;;5.20;3.47;;;12.70;99.90;;;;;;5075271;28;20648;-79
2022/10/12 05:07:33;;;;;;;4.30;2.67;;;12.70;99.90;;;;;;5075600;28;20464;-79
2022/10/12 05:10:00;;;;;;;2.63;2.20;;;12.70;99.90;;;;;;5075610;28;20446;-79
2022/10/12 05:12:27;;;;;;;4.93;2.10;;;12.70;99.90;;;;;;5075523;28;20485;-79
2022/10/12 05:14:53;;;;;;;4.40;2.10;;;12.70;99.90;;;;;;5075482;28;20476;-79
2022/10/12 05:17:20;;;;;;;9.63;3.03;;;12.80;99.90;;;;;;5075530;28;20449;-79
2022/10/12 05:19:47;;;;;;;6.30;3.20;;;12.80;99.90;;;;;;5075445;28;20472;-79
2022/10/12 05:22:15;;;;;;;5.97;2.70;;;12.80;99.90;;;;;;5074734;28;20447;-79
2022/10/12 05:24:42;;;;;;;3.70;2.30;;;12.70;99.90;;;;;;5075257;28;20466;-79
2022/10/12 05:27:08;;;;;;;4.93;1.87;;;12.80;99.90;;;;;;5075289;28;20441;-79
2022/10/12 05:29:35;;;;;;;3.90;2.10;;;12.80;99.90;;;;;;5074931;28;20456;-79
2022/10/12 05:32:02;;;;;;;6.17;2.30;;;12.80;99.90;;;;;;5074816;28;21026;-79
2022/10/12 05:34:29;;;;;;;6.27;1.60;;;12.80;99.90;;;;;;5075054;28;20580;-79
2022/10/12 05:36:57;;;;;;;4.40;2.40;;;12.80;99.90;;;;;;5075072;28;20523;-79
2022/10/12 05:39:25;;;;;;;3.90;1.97;;;12.80;99.90;;;;;;5075052;28;20446;-79
2022/10/12 05:41:53;;;;;;;10.90;3.27;;;12.80;99.90;;;;;;5074703;28;20804;-79
2022/10/12 05:44:20;;;;;;;6.97;2.17;;;12.90;99.90;;;;;;5074897;28;20469;-79
2022/10/12 05:46:46;;;;;;;9.00;2.00;;;12.90;99.90;;;;;;5074852;28;20449;-79
2022/10/12 05:49:13;;;;;;;7.57;2.57;;;12.90;99.90;;;;;;5074864;28;20450;-79
2022/10/12 05:51:40;;;;;;;6.43;3.23;;;12.90;99.90;;;;;;5074678;28;20477;-79
2022/10/12 05:54:07;;;;;;;5.73;3.10;;;12.90;99.90;;;;;;5074692;28;20500;-79
2022/10/12 05:56:35;;;;;;;7.20;2.80;;;12.90;99.90;;;;;;5074704;28;20460;-79
2022/10/12 05:59:03;;;;;;;5.40;2.83;;;12.90;99.90;;;;;;5074363;28;20939;-79
2022/10/12 06:01:30;;;;;;;3.43;2.00;;;12.90;99.90;;;;;;5074566;28;20807;-79
2022/10/12 06:03:56;;;;;;;5.83;2.73;;;12.90;99.90;;;;;;5073926;28;20477;-79
2022/10/12 06:06:23;;;;;;;4.73;2.83;;;12.90;99.90;;;;;;5074179;28;21065;-79
2022/10/12 06:08:50;;;;;;;8.50;2.07;;;12.90;99.90;;;;;;5074452;28;20446;-79
2022/10/12 06:11:17;;;;;;;5.33;2.40;;;13.00;99.90;;;;;;5074413;28;20545;-79
2022/10/12 06:13:45;;;;;;;6.37;3.20;;;13.00;99.90;;;;;;5074188;28;20485;-79
2022/10/12 06:16:12;;;;;;;5.40;1.53;;;13.10;99.90;;;;;;5074310;28;20452;-79
2022/10/12 06:18:38;;;;;;;9.60;2.47;;;13.10;99.90;;;;;;5074268;28;20449;-79
2022/10/12 06:21:05;;;;;;;7.40;2.43;;;13.10;99.90;;;;;;5074207;28;20537;-79
2022/10/12 06:23:32;;;;;;;5.43;2.77;;;13.00;99.90;;;;;;5074723;28;20442;-79
2022/10/12 06:26:00;;;;;;;4.33;2.47;;;13.00;99.90;;;;;;5073802;28;20472;-81
2022/10/12 06:28:27;;;;;;;3.00;1.60;;;13.00;99.90;;;;;;5073246;28;20430;-82
2022/10/12 06:30:55;;;;;;;5.93;3.00;;;13.00;99.90;;;;;;5074071;28;20450;-82
2022/10/12 06:33:22;;;;;;;4.30;2.70;;;13.00;99.90;;;;;;5073118;28;20556;-83
2022/10/12 06:35:49;;;;;;;5.90;2.40;;;13.00;99.90;;;;;;5073162;28;20475;-82
2022/10/12 06:38:16;;;;;;;5.83;2.17;;;13.10;99.90;;;;;;5073562;28;20953;-83
2022/10/12 06:40:43;;;;;;;3.37;2.00;;;13.10;99.90;;;;;;5073524;28;20449;-83
2022/10/12 06:43:10;;;;;;;4.30;2.33;;;13.20;99.90;;;;;;5073829;28;20485;-83
2022/10/12 06:45:37;;;;;;;4.50;2.03;;;13.20;99.90;;;;;;5073734;28;20465;-83
2022/10/12 06:48:05;;;;;;;7.77;2.90;;;13.10;99.90;;;;;;5073777;28;20449;-83
2022/10/12 06:50:32;;;;;;;8.03;3.10;;;13.20;99.90;;;;;;5073422;28;20449;-82
2022/10/12 06:52:59;;;;;;;5.63;2.37;;;13.20;99.90;;;;;;5073372;28;20496;-82
2022/10/12 06:55:27;;;;;;;9.53;3.80;;;13.20;99.90;;;;;;5073581;28;20492;-83
2022/10/12 06:57:55;;;;;;;6.90;3.10;;;13.20;99.90;;;;;;5073357;28;20972;-83
2022/10/12 07:00:22;;;;;;;6.20;3.13;;;13.20;99.90;;;;;;5073618;28;20445;-83
2022/10/12 07:02:49;;;;;;;3.53;2.10;;;13.20;99.90;;;;;;5073294;28;20441;-82
2022/10/12 07:05:17;;;;;;;7.63;3.27;;;13.20;99.90;;;;;;5073016;28;20485;-82
2022/10/12 07:07:45;;;;;;;2.10;1.67;;;13.30;99.90;;;;;;5073514;28;20545;-83
2022/10/12 07:10:12;;;;;;;4.53;2.37;;;13.30;99.90;;;;;;5073449;28;20445;-83
2022/10/12 07:12:39;;;;;;;6.93;2.90;;;13.40;99.90;;;;;;5073362;28;20496;-83
2022/10/12 07:15:07;;;;;;;3.30;1.97;;;13.50;99.90;;;;;;5073434;28;20457;-82
2022/10/12 07:17:34;;;;;;;4.93;2.00;;;13.40;99.90;;;;;;5073119;28;20937;-82
2022/10/12 07:20:01;;;;;;;4.47;2.13;;;13.40;99.90;;;;;;5073420;28;20445;-83
2022/10/12 07:22:29;;;;;;;4.30;3.13;;;13.50;99.90;;;;;;5073336;28;20452;-83
2022/10/12 07:24:56;;;;;;;2.87;2.30;;;13.50;99.90;;;;;;5073219;28;20499;-83
2022/10/12 07:27:23;;;;;;;7.47;3.67;;;13.50;99.90;;;;;;5073316;28;20449;-83
2022/10/12 07:29:50;;;;;;;5.80;2.20;;;13.50;99.90;;;;;;5072995;28;20948;-83
2022/10/12 07:32:17;;;;;;;3.63;1.73;;;13.50;99.90;;;;;;5073211;28;20487;-81
2022/10/12 07:34:44;;;;;;;3.90;2.77;;;13.60;99.90;;;;;;5073181;28;20473;-83
2022/10/12 07:37:11;;;;;;;5.07;2.27;;;13.50;99.90;;;;;;5072942;28;20981;-81
2022/10/12 07:39:40;;;;;;;6.93;3.17;;;13.50;99.90;;;;;;5073204;28;20450;-82
2022/10/12 07:42:07;;;;;;;7.37;3.93;;;13.50;99.90;;;;;;5072913;28;20511;-81
2022/10/12 07:44:34;;;;;;;3.70;1.87;;;13.60;99.90;;;;;;5074219;28;20465;-82
2022/10/12 07:47:00;;;;;;;6.73;4.43;;;13.60;99.90;;;;;;5076885;28;20457;-82
2022/10/12 07:49:27;;;;;;;5.07;2.27;;;13.60;99.90;;;;;;5076882;28;20445;-82
2022/10/12 07:51:54;;;;;;;7.30;2.83;;;13.70;99.90;;;;;;5077061;28;20460;-81
2022/10/12 07:54:21;;;;;;;3.23;2.13;;;13.80;99.90;;;;;;5076990;28;20469;-82
2022/10/12 07:56:49;;;;;;;3.63;1.67;;;13.90;99.90;;;;;;5077191;28;20446;-82
2022/10/12 07:59:15;;;;;;;7.80;2.93;;;13.90;99.90;;;;;;5076666;28;20814;-81
2022/10/12 08:01:42;;;;;;;11.77;2.67;;;14.00;99.90;;;;;;5077045;28;20445;-81
2022/10/12 08:04:10;;;;;;;7.63;1.90;;;13.90;99.90;;;;;;5076480;28;20477;-82
2022/10/12 08:06:37;;;;;;;6.00;2.50;;;13.90;99.90;;;;;;5076573;28;20524;-81
2022/10/12 08:09:04;;;;;;;8.00;2.83;;;13.90;99.90;;;;;;5076762;28;20445;-81
2022/10/12 08:11:31;;;;;;;6.23;2.43;;;13.90;99.90;;;;;;5076685;28;20453;-81
2022/10/12 08:14:00;;;;;;;6.90;2.07;;;13.90;99.90;;;;;;5076220;28;20847;-82
2022/10/12 08:16:26;;;;;;;5.40;1.93;;;14.00;99.90;;;;;;5076623;28;20449;-82
2022/10/12 08:18:53;;;;;;;3.80;1.77;;;14.00;99.90;;;;;;5076536;28;20449;-82
2022/10/12 08:21:20;;;;;;;6.97;2.77;;;14.00;99.90;;;;;;5076532;28;20451;-82
2022/10/12 08:23:47;;;;;;;2.80;1.80;;;13.90;99.90;;;;;;5076352;28;20441;-81
2022/10/12 08:26:14;;;;;;;5.73;2.83;;;14.00;99.90;;;;;;5076422;28;20477;-82
2022/10/12 08:28:41;;;;;;;3.83;3.53;;;13.90;99.90;;;;;;5076466;28;20444;-81
2022/10/12 08:31:12;;;;;;;7.77;3.43;;;14.00;99.90;;;;;;5076012;28;20811;-82
2022/10/12 08:33:39;;;;;;;8.07;2.20;;;14.00;99.90;;;;;;5075968;28;21003;-82
2022/10/12 08:36:07;;;;;;;3.57;1.80;;;14.10;99.90;;;;;;5076184;28;20468;-82
2022/10/12 08:38:37;;;;;;;4.97;1.87;;;14.10;99.90;;;;;;5075946;28;20799;-81
2022/10/12 08:41:13;;;;;;;11.03;3.27;;;14.10;99.90;;;;;;5069565;28;20539;-82
2022/10/12 08:43:52;;;;;;;2.67;1.37;;;14.10;99.90;;;;;;5056136;28;20429;-82
2022/10/12 08:46:22;;;;;;;2.90;2.00;;;14.10;99.90;;;;;;5056085;28;20434;-82
2022/10/12 08:48:56;;;;;;;4.83;2.10;;;14.20;99.90;;;;;;5055980;28;20474;-81
2022/10/12 08:51:25;;;;;;;3.93;1.57;;;14.20;99.90;;;;;;5055716;28;20914;-82
2022/10/12 08:53:58;;;;;;;2.60;1.40;;;14.20;99.90;;;;;;5055491;28;21001;-81
2022/10/12 08:56:25;;;;;;;6.43;2.43;;;14.30;99.90;;;;;;5055441;28;20445;-80
2022/10/12 08:58:53;;;;;;;2.00;1.20;;;14.30;99.90;;;;;;5055348;28;20446;-83
2022/10/12 09:01:29;;;;;;;5.63;1.83;;;14.30;99.90;;;;;;5055819;28;20454;-83
2022/10/12 09:04:16;;;;;;;5.30;1.77;;;14.40;99.90;;;;;;5055391;28;20482;-77
2022/10/12 09:06:49;;;;;;;10.90;1.47;;;14.50;99.90;;;;;;5055721;28;20445;-82
2022/10/12 09:09:33;;;;;;;5.53;1.67;;;14.50;99.90;;;;;;5056372;28;20443;-81
2022/10/12 09:12:18;;;;;;;6.43;1.90;;;14.60;99.90;;;;;;5055638;28;20445;-82
2022/10/12 09:14:47;;;;;;;5.43;2.00;;;14.70;99.90;;;;;;5055556;28;20463;-83
2022/10/12 09:17:24;;;;;;;4.90;1.80;;;14.60;99.90;;;;;;5055211;28;20454;-82
2022/10/12 09:20:00;;;;;;;11.63;2.40;;;14.70;99.90;;;;;;5055862;28;20799;-82
2022/10/12 09:22:28;;;;;;;6.57;2.30;;;14.70;99.90;;;;;;5055447;28;20771;-82
2022/10/12 09:24:57;;;;;;;4.20;1.47;;;14.70;99.90;;;;;;5055307;28;20466;-83
2022/10/12 09:27:27;;;;;;;4.17;1.60;;;14.70;99.90;;;;;;5054981;28;20934;-82
2022/10/12 09:29:57;;;;;;;2.30;1.63;;;14.70;99.90;;;;;;5054958;28;20541;-82
2022/10/12 09:32:49;;;;;;;2.83;1.43;;;14.70;99.90;;;;;;5055227;28;20431;-82
2022/10/12 09:35:16;;;;;;;1.80;1.30;;;14.70;99.90;;;;;;5054831;28;20470;-82
2022/10/12 09:37:46;;;;;;;2.80;1.40;;;14.70;99.90;;;;;;5055097;28;20446;-82
2022/10/12 09:40:20;;;;;;;6.13;1.70;;;14.80;99.90;;;;;;5055065;28;20797;-82
2022/10/12 09:42:47;;;;;;;5.80;1.40;;;14.80;99.90;;;;;;5055077;28;20439;-82
2022/10/12 09:45:17;;;;;;;2.40;1.50;;;14.80;99.90;;;;;;5054967;28;20841;-82
2022/10/12 09:48:10;;;;;;;2.23;1.97;;;14.80;99.90;;;;;;5055005;28;20504;-82
2022/10/12 09:50:43;;;;;;;6.30;2.17;;;14.90;99.90;;;;;;5054905;28;20536;-82
2022/10/12 09:53:26;;;;;;;10.60;1.53;;;14.90;99.90;;;;;;5054809;28;20470;-82
2022/10/12 09:56:04;;;;;;;6.80;2.80;;;15.00;99.90;;;;;;5054794;28;20561;-80
2022/10/12 09:58:32;;;;;;;1.60;1.40;;;15.00;99.90;;;;;;5054743;28;20561;-80
2022/10/12 10:01:22;;;;;;;6.50;1.90;;;15.10;99.90;;;;;;5054611;28;20462;-80
2022/10/12 10:04:06;;;;;;;3.97;1.87;;;15.20;99.90;;;;;;5050000;28;20486;-80
2022/10/12 10:06:33;;;;;;;4.10;1.50;;;15.20;99.90;;;;;;5054641;28;20492;-80
2022/10/12 10:09:00;;;;;;;4.63;1.77;;;15.30;99.90;;;;;;5054401;28;20468;-80
2022/10/12 10:11:30;;;;;;;1.80;1.57;;;15.30;99.90;;;;;;5054278;28;20433;-80
2022/10/12 10:13:59;;;;;;;5.70;1.87;;;15.30;99.90;;;;;;5054283;28;20486;-80
2022/10/12 10:16:28;;;;;;;3.50;2.43;;;15.30;99.90;;;;;;5054379;28;20455;-80
2022/10/12 10:19:00;;;;;;;2.60;1.50;;;15.40;99.90;;;;;;5054064;28;20458;-80
2022/10/12 10:21:30;;;;;;;1.63;1.23;;;15.50;99.90;;;;;;5054294;28;20520;-80
2022/10/12 10:23:59;;;;;;;3.87;1.67;;;15.50;99.90;;;;;;5054160;28;20445;-80
2022/10/12 10:26:28;;;;;;;3.17;1.57;;;15.50;99.90;;;;;;5054254;28;20446;-80
2022/10/12 10:29:14;;;;;;;5.47;1.63;;;15.50;99.90;;;;;;5053838;28;20457;-80
2022/10/12 10:31:41;;;;;;;3.17;1.80;;;15.60;99.90;;;;;;5053824;28;20430;-79
2022/10/12 10:34:19;;;;;;;2.10;1.83;;;15.70;99.90;;;;;;5053873;28;20486;-80
2022/10/12 10:36:48;;;;;;;1.60;1.50;;;15.70;99.90;;;;;;5054574;28;20434;-80
2022/10/12 10:39:22;;;;;;;2.30;1.33;;;15.80;99.90;;;;;;5053964;28;20793;-80
2022/10/12 10:41:50;;;;;;;2.77;1.80;;;15.80;99.90;;;;;;5053918;28;20426;-80
2022/10/12 10:44:29;;;;;;;5.13;2.17;;;15.80;99.90;;;;;;5053830;28;20455;-80
2022/10/12 10:46:59;;;;;;;4.00;1.67;;;15.90;99.90;;;;;;5053828;28;20441;-80
2022/10/12 10:49:36;;;;;;;4.50;2.00;;;15.90;99.90;;;;;;5053838;28;20438;-80
2022/10/12 10:52:04;;;;;;;2.43;1.50;;;16.00;99.90;;;;;;5053833;28;20449;-81
2022/10/12 10:54:33;;;;;;;5.03;1.77;;;16.00;99.90;;;;;;5053550;28;20497;-81
2022/10/12 10:57:03;;;;;;;3.17;1.53;;;16.10;99.90;;;;;;5053699;28;20442;-80
2022/10/12 10:59:41;;;;;;;2.97;1.83;;;16.10;99.90;;;;;;5053665;28;20441;-81
2022/10/12 11:02:19;;;;;;;3.77;2.10;;;16.10;99.90;;;;;;5053599;28;20438;-81
2022/10/12 11:04:51;;;;;;;3.33;1.10;;;16.10;99.90;;;;;;5053014;28;21008;-81
2022/10/12 11:07:26;;;;;;;3.70;2.00;;;16.20;99.90;;;;;;5053579;28;20441;-81
2022/10/12 11:09:56;;;;;;;3.10;1.70;;;16.20;99.90;;;;;;5053532;28;20435;-81
2022/10/12 11:12:28;;;;;;;1.83;1.30;;;16.20;99.90;;;;;;5053687;28;20442;-81
2022/10/12 11:14:59;;;;;;;2.03;1.20;;;16.20;99.90;;;;;;5053274;28;20494;-81
2022/10/12 11:17:31;;;;;;;2.17;1.40;;;16.20;99.90;;;;;;5053115;28;20910;-81
2022/10/12 11:20:11;;;;;;;4.40;1.90;;;16.20;99.90;;;;;;5052560;28;20562;-80
2022/10/12 11:22:44;;;;;;;6.30;1.90;;;16.20;99.90;;;;;;5053411;28;20438;-80
2022/10/12 11:25:21;;;;;;;2.40;1.40;;;16.10;99.90;;;;;;5053270;28;20477;-81
2022/10/12 11:27:49;;;;;;;5.83;2.07;;;16.20;99.90;;;;;;5053052;28;20430;-81
2022/10/12 11:30:18;;;;;;;2.67;1.43;;;16.20;99.90;;;;;;5053281;28;20452;-81
2022/10/12 11:32:48;;;;;;;2.50;1.87;;;16.20;99.90;;;;;;5053219;28;20446;-80
2022/10/12 11:35:23;;;;;;;3.13;1.50;;;16.20;99.90;;;;;;5053160;28;20897;-81
2022/10/12 11:37:54;;;;;;;4.73;1.97;;;16.20;99.90;;;;;;5052897;28;20437;-81
2022/10/12 11:40:25;;;;;;;2.97;1.43;;;16.20;99.90;;;;;;5053230;28;20461;-81
2022/10/12 11:42:53;;;;;;;5.00;2.23;;;16.20;99.90;;;;;;5053181;28;20451;-80
2022/10/12 11:45:24;;;;;;;3.53;1.93;;;16.30;99.90;;;;;;5053089;28;20458;-80
2022/10/12 11:47:55;;;;;;;3.40;1.43;;;16.30;99.90;;;;;;5053149;28;20431;-80
2022/10/12 11:50:30;;;;;;;3.47;1.77;;;16.30;99.90;;;;;;5053158;28;20532;-80
2022/10/12 11:52:57;;;;;;;6.47;1.60;;;16.30;99.90;;;;;;5053094;28;20438;-80
2022/10/12 11:55:35;;;;;;;1.93;1.57;;;16.30;99.90;;;;;;5052586;28;20488;-81
2022/10/12 11:58:21;;;;;;;2.57;1.90;;;16.30;99.90;;;;;;5052739;28;20430;-80
2022/10/12 12:01:03;;;;;;;5.30;1.63;;;16.40;99.90;;;;;;5052737;28;20431;-80
2022/10/12 12:03:38;;;;;;;3.63;2.10;;;16.40;99.90;;;;;;5052511;28;20489;-80
2022/10/12 12:06:53;;;;;;;0.73;0.73;;;16.40;99.90;;;;;;5052717;28;20468;-80
2022/10/12 12:09:32;;;;;;;5.87;1.40;;;16.50;99.90;;;;;;5047093;28;20447;-80
2022/10/12 12:12:27;;;;;;;7.00;1.70;;;16.40;99.90;;;;;;5052688;28;20782;-80
2022/10/12 12:15:06;;;;;;;9.97;1.93;;;16.50;99.90;;;;;;5006466;28;20498;-80
2022/10/12 12:17:35;;;;;;;2.87;1.30;;;16.60;99.90;;;;;;5052657;28;20428;-80
2022/10/12 12:20:04;;;;;;;2.30;1.00;;;16.70;99.90;;;;;;5052791;28;20442;-80
2022/10/12 12:22:49;;;;;;;3.27;1.67;;;16.70;99.90;;;;;;5052452;28;20446;-80
2022/10/12 12:25:28;;;;;;;1.30;1.20;;;16.70;99.90;;;;;;5052707;28;20472;-80
2022/10/12 12:27:59;;;;;;;3.27;2.10;;;16.80;99.90;;;;;;5052764;28;20430;-80
2022/10/12 12:30:55;;;;;;;4.17;1.70;;;16.70;99.90;;;;;;5052797;28;20453;-80
2022/10/12 12:33:31;;;;;;;1.83;1.47;;;16.70;99.90;;;;;;5056429;28;20415;-80
2022/10/12 12:36:00;;;;;;;3.47;1.60;;;16.70;99.90;;;;;;5056310;28;20848;-80
2022/10/12 12:38:32;;;;;;;4.73;2.17;;;16.70;99.90;;;;;;5056255;28;20452;-80
2022/10/12 12:41:02;;;;;;;5.77;2.10;;;16.60;99.90;;;;;;5055984;28;20441;-80
2022/10/12 12:44:01;;;;;;;3.03;1.93;;;16.60;99.90;;;;;;5055792;28;20976;-80
2022/10/12 12:47:08;;;;;;;4.27;1.90;;;16.60;99.90;;;;;;5055855;28;20489;-80
2022/10/12 12:49:43;;;;;;;1.67;1.20;;;16.60;99.90;;;;;;5055890;28;20907;-80
2022/10/12 12:52:19;;;;;;;5.00;2.10;;;16.60;99.90;;;;;;5056062;28;20453;-79
2022/10/12 12:55:14;;;;;;;3.77;1.57;;;16.60;99.90;;;;;;5055870;28;20501;-79
2022/10/12 12:57:56;;;;;;;1.43;1.37;;;16.50;99.90;;;;;;5056004;28;20435;-79
2022/10/12 13:00:25;;;;;;;6.13;2.40;;;16.60;99.90;;;;;;5055903;28;20445;-80
2022/10/12 13:03:36;;;;;;;4.53;1.60;;;16.60;99.90;;;;;;5055825;28;20450;-80
2022/10/12 13:06:32;;;;;;;1.63;1.20;;;16.70;99.90;;;;;;5055218;28;20466;-80